createdAt,value
2023-09-17T00:01:30.265Z,20.80
2023-09-17T00:03:03.443Z,19.30
2023-09-17T00:04:35.441Z,19.20
2023-09-17T00:06:09.292Z,19.10
2023-09-17T00:07:41.955Z,22.10
2023-09-17T00:09:14.173Z,21.80
2023-09-17T00:10:46.503Z,21.90
2023-09-17T00:12:18.423Z,22.70
2023-09-17T00:13:50.344Z,21.00
2023-09-17T00:15:26.489Z,21.50
2023-09-17T00:16:58.714Z,22.20
2023-09-17T00:18:30.819Z,19.50
2023-09-17T00:20:02.559Z,21.50
2023-09-17T00:21:34.285Z,17.90
2023-09-17T00:23:06.109Z,19.90
2023-09-17T00:24:37.849Z,20.20
2023-09-17T00:26:09.558Z,20.60
2023-09-17T00:27:44.861Z,21.00
2023-09-17T00:29:16.625Z,20.70
2023-09-17T00:30:48.453Z,21.80
2023-09-17T00:32:20.201Z,21.30
2023-09-17T00:33:52.116Z,22.40
2023-09-17T00:35:24.064Z,23.30
2023-09-17T00:36:55.776Z,20.90
2023-09-17T00:38:27.498Z,21.20
2023-09-17T00:39:59.272Z,21.60
2023-09-17T00:41:31.001Z,24.50
2023-09-17T00:43:03.388Z,23.60
2023-09-17T00:44:35.186Z,22.50
2023-09-17T00:46:08.228Z,22.40
2023-09-17T00:47:40.350Z,21.20
2023-09-17T00:49:14.876Z,22.00
2023-09-17T00:50:47.099Z,23.00
2023-09-17T00:52:22.234Z,21.70
2023-09-17T00:53:57.311Z,20.30
2023-09-17T00:55:31.040Z,22.10
2023-09-17T00:57:04.161Z,23.30
2023-09-17T00:58:37.540Z,21.20
2023-09-17T01:00:11.000Z,23.30
2023-09-17T01:01:43.614Z,22.30
2023-09-17T01:03:16.128Z,20.60
2023-09-17T01:04:53.630Z,22.20
2023-09-17T01:06:26.142Z,22.20
2023-09-17T01:08:01.257Z,22.70
2023-09-17T01:09:33.653Z,21.30
2023-09-17T01:11:08.593Z,22.70
2023-09-17T01:28:08.143Z,19.50
2023-09-17T01:29:43.920Z,21.90
2023-09-17T01:31:17.385Z,24.10
2023-09-17T01:32:49.406Z,22.10
2023-09-17T01:34:22.235Z,20.80
2023-09-17T01:36:22.954Z,21.70
2023-09-17T01:38:05.837Z,22.80
2023-09-17T01:39:47.006Z,19.90
2023-09-17T01:41:20.009Z,18.40
2023-09-17T01:42:56.126Z,19.70
2023-09-17T01:44:34.516Z,21.70
2023-09-17T01:46:07.343Z,23.70
2023-09-17T01:47:40.870Z,21.70
2023-09-17T01:49:14.398Z,22.60
2023-09-17T01:50:48.389Z,20.80
2023-09-17T01:52:21.968Z,23.70
2023-09-17T01:53:54.722Z,22.40
2023-09-17T01:55:28.129Z,21.50
2023-09-17T01:56:59.954Z,21.00
2023-09-17T01:58:32.286Z,22.30
2023-09-17T02:00:15.732Z,22.70
2023-09-17T02:01:47.730Z,22.20
2023-09-17T02:03:20.839Z,22.00
2023-09-17T02:04:53.736Z,19.90
2023-09-17T02:06:25.947Z,20.70
2023-09-17T02:07:57.861Z,21.70
2023-09-17T02:09:29.621Z,21.70
2023-09-17T02:11:05.792Z,19.20
2023-09-17T02:12:46.082Z,20.40
2023-09-17T02:14:17.909Z,18.20
2023-09-17T02:15:50.702Z,20.50
2023-09-17T02:17:23.154Z,21.30
2023-09-17T02:18:55.559Z,20.10
2023-09-17T02:20:27.505Z,20.90
2023-09-17T02:21:59.593Z,17.40
2023-09-17T02:23:35.811Z,19.40
2023-09-17T02:25:11.310Z,21.00
2023-09-17T02:26:43.107Z,20.20
2023-09-17T02:28:15.179Z,18.70
2023-09-17T02:29:47.175Z,22.70
2023-09-17T02:31:19.241Z,20.30
2023-09-17T02:32:51.132Z,18.50
2023-09-17T02:35:45.411Z,19.40
2023-09-17T02:37:17.240Z,19.80
2023-09-17T02:38:49.115Z,21.40
2023-09-17T02:40:25.094Z,18.10
2023-09-17T02:41:57.393Z,20.80
2023-09-17T02:43:30.492Z,18.60
2023-09-17T02:45:04.000Z,20.40
2023-09-17T02:46:36.137Z,18.30
2023-09-17T02:48:08.143Z,20.90
2023-09-17T02:49:39.984Z,21.00
2023-09-17T02:51:11.852Z,20.10
2023-09-17T02:52:43.689Z,19.10
2023-09-17T02:54:15.699Z,19.30
2023-09-17T02:55:47.609Z,20.70
2023-09-17T02:57:19.381Z,21.00
2023-09-17T02:58:53.936Z,19.90
2023-09-17T03:00:25.775Z,20.10
2023-09-17T03:01:57.650Z,22.30
2023-09-17T03:03:29.479Z,20.50
2023-09-17T03:05:01.356Z,21.40
2023-09-17T03:06:34.770Z,21.60
2023-09-17T03:08:09.945Z,24.40
2023-09-17T03:09:43.638Z,21.60
2023-09-17T03:11:18.702Z,22.00
2023-09-17T03:12:53.633Z,17.70
2023-09-17T03:14:25.443Z,20.90
2023-09-17T03:15:59.046Z,19.70
2023-09-17T03:17:31.075Z,19.90
2023-09-17T03:19:03.378Z,19.50
2023-09-17T03:20:35.208Z,18.90
2023-09-17T03:22:07.373Z,17.80
2023-09-17T03:23:39.991Z,21.00
2023-09-17T03:25:13.855Z,19.30
2023-09-17T03:26:45.701Z,19.70
2023-09-17T03:28:17.544Z,19.70
2023-09-17T03:29:49.273Z,19.70
2023-09-17T03:31:21.639Z,20.20
2023-09-17T03:33:04.320Z,19.90
2023-09-17T03:34:42.183Z,18.70
2023-09-17T03:36:14.089Z,21.40
2023-09-17T03:37:46.515Z,18.10
2023-09-17T03:39:21.462Z,16.60
2023-09-17T03:40:54.006Z,18.50
2023-09-17T03:42:25.829Z,16.60
2023-09-17T03:43:57.619Z,18.70
2023-09-17T03:45:29.387Z,18.30
2023-09-17T03:47:02.180Z,17.20
2023-09-17T03:48:34.536Z,18.10
2023-09-17T03:50:09.516Z,18.90
2023-09-17T03:51:41.319Z,19.20
2023-09-17T03:53:14.566Z,19.30
2023-09-17T03:54:46.449Z,19.90
2023-09-17T03:56:18.419Z,18.80
2023-09-17T03:57:51.045Z,21.50
2023-09-17T03:59:23.238Z,17.70
2023-09-17T04:00:55.098Z,18.10
2023-09-17T04:02:27.088Z,19.70
2023-09-17T04:03:59.147Z,18.70
2023-09-17T04:05:31.035Z,18.30
2023-09-17T04:07:04.306Z,20.60
2023-09-17T04:08:36.279Z,20.30
2023-09-17T04:10:09.070Z,20.10
2023-09-17T04:11:40.857Z,21.10
2023-09-17T04:13:13.851Z,19.10
2023-09-17T04:14:46.075Z,20.60
2023-09-17T04:16:22.206Z,18.60
2023-09-17T04:17:54.213Z,21.70
2023-09-17T04:19:26.237Z,20.50
2023-09-17T04:20:58.013Z,20.10
2023-09-17T04:22:29.884Z,19.50
2023-09-17T04:24:04.261Z,20.10
2023-09-17T04:25:36.435Z,21.20
2023-09-17T04:27:09.156Z,21.70
2023-09-17T04:28:41.035Z,22.30
2023-09-17T04:30:17.940Z,20.70
2023-09-17T04:31:49.946Z,22.50
2023-09-17T04:33:22.150Z,21.20
2023-09-17T04:34:54.208Z,21.40
2023-09-17T04:36:26.179Z,20.80
2023-09-17T04:37:57.970Z,19.80
2023-09-17T04:39:33.759Z,21.80
2023-09-17T04:41:06.422Z,21.30
2023-09-17T04:42:49.498Z,21.30
2023-09-17T04:44:23.391Z,21.60
2023-09-17T04:45:55.772Z,20.90
2023-09-17T04:47:39.296Z,22.10
2023-09-17T04:49:11.469Z,22.10
2023-09-17T04:50:48.137Z,21.40
2023-09-17T04:52:20.600Z,21.80
2023-09-17T04:53:52.796Z,25.70
2023-09-17T04:55:26.215Z,24.60
2023-09-17T04:56:58.168Z,23.70
2023-09-17T04:58:30.011Z,24.70
2023-09-17T05:00:11.855Z,26.50
2023-09-17T05:01:43.948Z,26.40
2023-09-17T05:03:16.413Z,25.30
2023-09-17T05:04:49.179Z,25.20
2023-09-17T05:06:21.060Z,26.00
2023-09-17T05:07:53.611Z,25.30
2023-09-17T05:09:27.236Z,26.70
2023-09-17T05:10:59.035Z,20.50
2023-09-17T05:12:31.128Z,26.10
2023-09-17T05:14:03.119Z,23.90
2023-09-17T05:15:35.665Z,24.20
2023-09-17T05:17:07.631Z,24.20
2023-09-17T05:18:40.068Z,24.80
2023-09-17T05:20:12.555Z,23.60
2023-09-17T05:21:44.601Z,24.70
2023-09-17T05:23:18.758Z,24.60
2023-09-17T05:24:53.747Z,25.30
2023-09-17T05:26:26.862Z,27.20
2023-09-17T05:27:59.096Z,24.80
2023-09-17T05:29:30.862Z,25.60
2023-09-17T05:31:02.830Z,24.20
2023-09-17T05:32:35.004Z,25.00
2023-09-17T05:34:06.835Z,25.20
2023-09-17T05:35:38.890Z,22.50
2023-09-17T05:37:11.327Z,23.50
2023-09-17T05:38:43.340Z,27.90
2023-09-17T05:40:15.856Z,25.70
2023-09-17T05:41:49.112Z,26.00
2023-09-17T05:43:21.047Z,29.80
2023-09-17T05:44:53.740Z,26.10
2023-09-17T05:46:26.063Z,29.90
2023-09-17T05:47:58.056Z,25.30
2023-09-17T05:49:30.149Z,28.20
2023-09-17T05:51:02.114Z,29.30
2023-09-17T05:52:35.137Z,23.80
2023-09-17T05:54:07.221Z,27.40
2023-09-17T05:55:38.947Z,28.30
2023-09-17T05:57:10.715Z,29.50
2023-09-17T05:58:42.560Z,27.00
2023-09-17T06:00:15.137Z,28.50
2023-09-17T06:01:47.141Z,29.20
2023-09-17T06:03:19.075Z,29.90
2023-09-17T06:04:54.347Z,27.70
2023-09-17T06:06:27.811Z,25.80
2023-09-17T06:08:00.125Z,25.40
2023-09-17T06:09:32.861Z,23.60
2023-09-17T06:11:04.894Z,27.80
2023-09-17T06:12:36.601Z,29.40
2023-09-17T06:14:09.206Z,28.70
2023-09-17T06:15:40.988Z,27.20
2023-09-17T06:17:12.839Z,30.40
2023-09-17T06:18:44.703Z,25.60
2023-09-17T06:20:16.844Z,22.50
2023-09-17T06:21:48.643Z,24.50
2023-09-17T06:23:20.392Z,26.60
2023-09-17T06:24:53.530Z,23.10
2023-09-17T06:26:25.690Z,29.90
2023-09-17T06:27:58.494Z,24.30
2023-09-17T06:29:31.048Z,25.70
2023-09-17T06:31:03.567Z,24.00
2023-09-17T06:32:36.302Z,23.80
2023-09-17T06:34:10.781Z,24.40
2023-09-17T06:35:46.215Z,26.60
2023-09-17T06:37:19.155Z,22.80
2023-09-17T06:38:52.828Z,24.80
2023-09-17T06:40:25.103Z,26.10
2023-09-17T06:41:57.058Z,25.50
2023-09-17T06:43:30.892Z,25.90
2023-09-17T06:45:03.375Z,26.70
2023-09-17T06:46:36.160Z,29.00
2023-09-17T06:48:08.801Z,27.30
2023-09-17T06:49:40.950Z,26.60
2023-09-17T06:51:13.137Z,27.60
2023-09-17T06:52:45.209Z,26.00
2023-09-17T06:54:17.444Z,28.30
2023-09-17T06:55:49.979Z,25.70
2023-09-17T06:57:22.204Z,30.00
2023-09-17T06:58:54.534Z,23.90
2023-09-17T07:00:26.972Z,22.90
2023-09-17T07:01:59.489Z,28.60
2023-09-17T07:03:31.813Z,24.10
2023-09-17T07:05:05.466Z,22.90
2023-09-17T07:06:37.502Z,26.00
2023-09-17T07:08:09.734Z,26.00
2023-09-17T07:09:42.104Z,24.90
2023-09-17T07:11:14.559Z,27.90
2023-09-17T07:12:47.207Z,24.00
2023-09-17T07:14:19.531Z,22.00
2023-09-17T07:15:52.003Z,23.60
2023-09-17T07:17:24.384Z,25.50
2023-09-17T07:18:56.356Z,26.80
2023-09-17T07:20:28.366Z,25.60
2023-09-17T07:22:00.692Z,23.20
2023-09-17T07:23:33.872Z,22.80
2023-09-17T07:25:06.164Z,24.80
2023-09-17T07:26:38.760Z,21.50
2023-09-17T07:28:11.189Z,21.70
2023-09-17T07:29:43.630Z,21.30
2023-09-17T07:31:16.487Z,18.20
2023-09-17T07:32:48.409Z,20.80
2023-09-17T07:34:20.464Z,19.90
2023-09-17T07:35:52.483Z,18.70
2023-09-17T07:37:30.492Z,23.30
2023-09-17T07:39:10.458Z,18.90
2023-09-17T07:40:42.569Z,22.20
2023-09-17T07:42:15.311Z,21.00
2023-09-17T07:43:47.280Z,20.20
2023-09-17T07:45:19.870Z,20.10
2023-09-17T07:46:51.749Z,22.20
2023-09-17T07:48:26.789Z,20.60
2023-09-17T07:49:58.720Z,20.30
2023-09-17T07:51:30.664Z,22.50
2023-09-17T07:53:03.518Z,18.70
2023-09-17T07:54:40.850Z,19.50
2023-09-17T07:56:12.682Z,19.20
2023-09-17T07:57:44.570Z,19.00
2023-09-17T07:59:16.405Z,19.80
2023-09-17T08:00:49.486Z,17.90
2023-09-17T08:02:21.685Z,20.50
2023-09-17T08:03:53.701Z,19.60
2023-09-17T08:05:26.425Z,19.70
2023-09-17T08:06:58.435Z,20.90
2023-09-17T08:08:30.489Z,22.30
2023-09-17T08:10:02.517Z,19.20
2023-09-17T08:11:35.475Z,17.60
2023-09-17T08:13:07.650Z,17.20
2023-09-17T08:14:47.286Z,15.30
2023-09-17T08:16:21.246Z,19.00
2023-09-17T08:17:53.657Z,15.20
2023-09-17T08:19:26.273Z,17.60
2023-09-17T08:20:58.236Z,13.50
2023-09-17T08:22:30.572Z,12.10
2023-09-17T08:24:02.557Z,12.10
2023-09-17T08:25:34.508Z,10.10
2023-09-17T08:27:10.365Z,11.90
2023-09-17T08:28:43.625Z,10.30
2023-09-17T08:30:16.700Z,10.60
2023-09-17T08:31:48.694Z,9.50
2023-09-17T08:33:20.506Z,9.70
2023-09-17T08:34:52.560Z,7.40
2023-09-17T08:36:24.511Z,7.80
2023-09-17T08:37:57.130Z,8.80
2023-09-17T08:39:29.183Z,8.00
2023-09-17T08:41:06.332Z,7.00
2023-09-17T08:42:43.278Z,9.10
2023-09-17T08:44:18.317Z,8.10
2023-09-17T08:45:51.991Z,7.50
2023-09-17T08:47:24.356Z,7.60
2023-09-17T08:48:56.476Z,6.70
2023-09-17T08:50:32.351Z,7.10
2023-09-17T08:52:06.347Z,7.60
2023-09-17T08:53:44.973Z,9.60
2023-09-17T08:55:19.297Z,7.70
2023-09-17T08:56:53.776Z,7.60
2023-09-17T08:58:37.008Z,6.80
2023-09-17T09:00:16.463Z,6.50
2023-09-17T09:01:50.307Z,7.40
2023-09-17T09:03:26.449Z,6.60
2023-09-17T09:05:01.734Z,8.00
2023-09-17T09:06:36.011Z,7.20
2023-09-17T09:08:10.113Z,5.90
2023-09-17T09:09:43.889Z,7.30
2023-09-17T09:11:16.837Z,8.50
2023-09-17T09:12:50.792Z,6.30
2023-09-17T09:14:23.124Z,6.40
2023-09-17T09:15:57.884Z,7.10
2023-09-17T09:17:29.994Z,6.70
2023-09-17T09:19:02.856Z,8.30
2023-09-17T09:20:34.885Z,7.60
2023-09-17T09:22:06.804Z,6.20
2023-09-17T09:23:39.172Z,7.10
2023-09-17T09:25:15.742Z,8.30
2023-09-17T09:26:48.500Z,7.60
2023-09-17T09:28:20.648Z,5.50
2023-09-17T09:29:52.968Z,7.70
2023-09-17T09:31:26.336Z,7.70
2023-09-17T09:32:58.635Z,7.00
2023-09-17T09:34:31.542Z,7.70
2023-09-17T09:36:04.703Z,7.10
2023-09-17T09:37:36.936Z,6.10
2023-09-17T09:39:08.880Z,5.30
2023-09-17T09:40:43.537Z,7.70
2023-09-17T09:42:16.036Z,5.70
2023-09-17T09:43:49.446Z,6.70
2023-09-17T09:45:21.975Z,5.60
2023-09-17T09:46:59.140Z,6.80
2023-09-17T09:48:41.037Z,6.80
2023-09-17T09:50:32.428Z,7.50
2023-09-17T09:52:04.993Z,6.60
2023-09-17T09:53:36.892Z,6.50
2023-09-17T09:55:09.218Z,8.70
2023-09-17T09:56:41.470Z,6.80
2023-09-17T09:58:14.600Z,7.10
2023-09-17T09:59:51.782Z,9.50
2023-09-17T10:01:27.006Z,5.40
2023-09-17T10:02:59.375Z,6.00
2023-09-17T10:04:32.259Z,7.50
2023-09-17T10:06:08.637Z,5.60
2023-09-17T10:07:40.784Z,5.40
2023-09-17T10:09:14.433Z,5.00
2023-09-17T10:10:49.234Z,6.50
2023-09-17T10:12:21.865Z,6.20
2023-09-17T10:14:14.884Z,6.30
2023-09-17T10:15:47.952Z,6.90
2023-09-17T10:17:20.702Z,7.10
2023-09-17T10:18:54.925Z,6.50
2023-09-17T10:20:28.547Z,6.20
2023-09-17T10:22:05.090Z,5.50
2023-09-17T10:23:38.026Z,6.00
2023-09-17T10:25:15.412Z,6.80
2023-09-17T10:26:47.599Z,6.60
2023-09-17T10:28:21.514Z,5.80
2023-09-17T10:29:56.063Z,4.80
2023-09-17T10:31:28.946Z,6.50
2023-09-17T10:33:04.694Z,5.60
2023-09-17T10:34:37.512Z,7.10
2023-09-17T10:36:10.542Z,6.90
2023-09-17T10:37:44.875Z,4.60
2023-09-17T10:39:18.534Z,6.30
2023-09-17T10:40:51.619Z,5.80
2023-09-17T10:42:26.514Z,6.90
2023-09-17T10:44:00.829Z,7.40
2023-09-17T10:45:37.272Z,6.60
2023-09-17T10:47:12.808Z,6.20
2023-09-17T10:48:47.714Z,5.40
2023-09-17T10:50:20.477Z,6.50
2023-09-17T10:51:54.458Z,5.20
2023-09-17T10:53:27.796Z,7.20
2023-09-17T10:55:00.404Z,7.60
2023-09-17T10:56:34.211Z,6.40
2023-09-17T10:58:37.289Z,5.30
2023-09-17T11:00:18.477Z,5.70
2023-09-17T11:01:52.546Z,6.90
2023-09-17T11:03:28.837Z,5.20
2023-09-17T11:05:04.503Z,6.30
2023-09-17T11:06:38.996Z,6.60
2023-09-17T11:08:11.327Z,6.10
2023-09-17T11:09:43.504Z,7.10
2023-09-17T11:11:17.842Z,6.20
2023-09-17T11:12:49.780Z,7.20
2023-09-17T11:14:21.765Z,6.80
2023-09-17T11:15:57.388Z,5.80
2023-09-17T11:17:34.284Z,6.60
2023-09-17T11:19:14.612Z,6.40
2023-09-17T11:21:08.134Z,6.10
2023-09-17T11:22:42.833Z,6.50
2023-09-17T11:24:15.091Z,6.60
2023-09-17T11:25:46.903Z,7.10
2023-09-17T11:27:21.943Z,5.80
2023-09-17T11:28:58.595Z,8.10
2023-09-17T11:30:30.515Z,7.10
2023-09-17T11:32:04.991Z,6.60
2023-09-17T11:33:39.006Z,7.50
2023-09-17T11:35:10.974Z,6.50
2023-09-17T11:36:42.795Z,7.40
2023-09-17T11:38:15.051Z,7.10
2023-09-17T11:39:53.551Z,6.30
2023-09-17T11:41:31.440Z,6.30
2023-09-17T11:43:03.598Z,6.10
2023-09-17T11:44:37.968Z,5.40
2023-09-17T11:46:12.655Z,6.30
2023-09-17T11:47:45.582Z,8.20
2023-09-17T11:49:19.290Z,5.70
2023-09-17T11:50:51.136Z,5.80
2023-09-17T11:52:25.350Z,5.30
2023-09-17T11:54:06.287Z,5.90
2023-09-17T11:55:39.299Z,6.40
2023-09-17T11:57:11.297Z,5.50
2023-09-17T11:58:43.421Z,5.50
2023-09-17T12:00:29.726Z,6.70
2023-09-17T12:02:01.615Z,6.50
2023-09-17T12:03:33.500Z,6.20
2023-09-17T12:05:05.992Z,6.80
2023-09-17T12:06:49.398Z,6.40
2023-09-17T12:08:21.567Z,5.00
2023-09-17T12:10:02.479Z,6.60
2023-09-17T12:11:36.398Z,5.20
2023-09-17T12:13:08.459Z,6.00
2023-09-17T12:14:41.570Z,5.60
2023-09-17T12:16:17.527Z,5.30
2023-09-17T12:17:50.202Z,6.60
2023-09-17T12:19:22.589Z,8.50
2023-09-17T12:21:03.086Z,6.60
2023-09-17T12:22:34.866Z,6.60
2023-09-17T12:24:07.854Z,5.90
2023-09-17T12:25:44.601Z,5.50
2023-09-17T12:27:34.482Z,4.20
2023-09-17T12:29:10.710Z,7.10
2023-09-17T12:30:42.706Z,6.20
2023-09-17T12:32:18.444Z,6.20
2023-09-17T12:33:50.493Z,6.90
2023-09-17T12:35:24.331Z,6.20
2023-09-17T12:36:56.438Z,6.90
2023-09-17T12:38:28.181Z,8.20
2023-09-17T12:40:00.375Z,6.30
2023-09-17T12:41:40.480Z,5.90
2023-09-17T12:43:13.147Z,7.10
2023-09-17T12:44:45.066Z,7.60
2023-09-17T12:46:17.565Z,7.00
2023-09-17T12:47:49.498Z,6.30
2023-09-17T12:49:25.913Z,6.40
2023-09-17T12:51:01.558Z,7.50
2023-09-17T12:52:34.186Z,6.70
2023-09-17T12:54:07.128Z,6.00
2023-09-17T12:55:38.989Z,9.00
2023-09-17T12:57:10.997Z,6.80
2023-09-17T12:58:43.017Z,6.70
2023-09-17T13:00:15.790Z,6.00
2023-09-17T13:01:55.482Z,6.50
2023-09-17T13:03:27.487Z,6.40
2023-09-17T13:05:00.820Z,8.50
2023-09-17T13:06:36.541Z,6.20
2023-09-17T13:08:09.689Z,7.30
2023-09-17T13:09:42.020Z,7.80
2023-09-17T13:11:14.954Z,7.70
2023-09-17T13:12:46.842Z,6.10
2023-09-17T13:14:18.717Z,5.60
2023-09-17T13:15:50.736Z,5.50
2023-09-17T13:17:24.762Z,5.90
2023-09-17T13:18:56.837Z,5.50
2023-09-17T13:20:28.980Z,6.10
2023-09-17T13:22:00.922Z,6.90
2023-09-17T13:23:34.107Z,7.00
2023-09-17T13:25:07.978Z,7.10
2023-09-17T13:26:39.798Z,7.10
2023-09-17T13:28:17.298Z,6.90
2023-09-17T13:29:52.627Z,6.30
2023-09-17T13:31:24.411Z,7.20
2023-09-17T13:32:59.673Z,6.00
2023-09-17T13:34:31.612Z,6.60
2023-09-17T13:36:10.866Z,6.90
2023-09-17T13:37:43.905Z,6.80
2023-09-17T13:39:16.436Z,5.40
2023-09-17T13:40:51.947Z,7.00
2023-09-17T13:42:24.898Z,6.60
2023-09-17T13:44:01.035Z,6.00
2023-09-17T13:45:37.023Z,5.40
2023-09-17T13:47:14.727Z,6.30
2023-09-17T13:48:49.514Z,7.20
2023-09-17T13:50:24.356Z,5.50
2023-09-17T13:52:01.214Z,6.10
2023-09-17T13:53:33.663Z,6.10
2023-09-17T13:55:08.120Z,6.30
2023-09-17T13:56:40.920Z,5.50
2023-09-17T13:58:16.220Z,6.70
2023-09-17T13:59:49.510Z,6.90
2023-09-17T14:01:22.373Z,7.60
2023-09-17T14:02:55.231Z,7.20
2023-09-17T14:04:29.114Z,5.10
2023-09-17T14:06:05.940Z,6.50
2023-09-17T14:07:38.779Z,6.70
2023-09-17T14:09:17.641Z,6.20
2023-09-17T14:10:57.169Z,6.70
2023-09-17T14:12:30.936Z,6.30
2023-09-17T14:14:06.786Z,7.00
2023-09-17T14:15:40.959Z,7.50
2023-09-17T14:17:16.961Z,5.50
2023-09-17T14:18:53.781Z,7.80
2023-09-17T14:20:33.278Z,6.20
2023-09-17T14:23:54.908Z,7.70
2023-09-17T14:25:33.609Z,11.10
2023-09-17T14:27:09.961Z,13.50
2023-09-17T14:30:40.949Z,11.00
2023-09-17T14:32:38.632Z,11.10
2023-09-17T14:34:18.038Z,9.80
2023-09-17T14:35:56.319Z,8.90
2023-09-17T14:37:40.948Z,6.70
2023-09-17T14:39:15.685Z,6.40
2023-09-17T14:44:34.442Z,5.90
2023-09-17T14:46:06.735Z,8.10
2023-09-17T14:47:45.767Z,7.30
2023-09-17T14:51:30.167Z,5.90
2023-09-17T14:53:28.585Z,5.40
2023-09-17T14:55:02.432Z,5.50
2023-09-17T14:56:39.516Z,6.20
2023-09-17T14:58:30.340Z,7.60
2023-09-17T15:00:07.943Z,7.70
2023-09-17T15:01:59.098Z,5.90
2023-09-17T15:03:33.797Z,5.50
2023-09-17T15:05:05.904Z,6.00
2023-09-17T15:06:37.690Z,6.70
2023-09-17T15:08:09.526Z,5.50
2023-09-17T15:09:41.309Z,6.00
2023-09-17T15:11:13.204Z,5.70
2023-09-17T15:12:44.974Z,6.40
2023-09-17T15:14:16.774Z,7.10
2023-09-17T15:15:49.541Z,6.30
2023-09-17T15:17:21.664Z,6.30
2023-09-17T15:18:53.653Z,6.60
2023-09-17T15:20:26.330Z,7.40
2023-09-17T15:21:58.135Z,8.40
2023-09-17T15:23:30.908Z,7.00
2023-09-17T15:25:02.781Z,8.10
2023-09-17T15:26:34.561Z,7.30
2023-09-17T15:28:07.109Z,8.10
2023-09-17T15:29:39.066Z,6.70
2023-09-17T15:31:11.208Z,7.80
2023-09-17T15:32:43.314Z,5.90
2023-09-17T15:34:15.541Z,6.50
2023-09-17T15:35:47.832Z,6.00
2023-09-17T15:37:22.633Z,6.00
2023-09-17T15:38:54.619Z,7.00
2023-09-17T15:40:26.722Z,6.70
2023-09-17T15:41:58.579Z,6.80
2023-09-17T15:43:31.067Z,6.80
2023-09-17T15:45:03.062Z,6.90
2023-09-17T15:46:35.909Z,6.70
2023-09-17T15:48:07.716Z,6.90
2023-09-17T15:49:39.650Z,6.70
2023-09-17T15:51:11.461Z,6.30
2023-09-17T15:52:43.484Z,8.00
2023-09-17T15:54:15.344Z,6.60
2023-09-17T15:55:47.124Z,6.90
2023-09-17T15:57:18.859Z,8.00
2023-09-17T15:58:51.119Z,6.70
2023-09-17T16:00:23.398Z,8.80
2023-09-17T16:01:55.201Z,6.90
2023-09-17T16:03:27.249Z,7.10
2023-09-17T16:04:59.422Z,8.30
2023-09-17T16:06:31.545Z,8.90
2023-09-17T16:08:03.496Z,9.70
2023-09-17T16:09:35.583Z,11.40
2023-09-17T16:11:07.462Z,12.10
2023-09-17T16:12:39.239Z,11.60
2023-09-17T16:14:10.972Z,9.00
2023-09-17T16:15:42.761Z,8.00
2023-09-17T16:17:14.503Z,9.20
2023-09-17T16:18:46.323Z,8.10
2023-09-17T16:20:18.286Z,7.80
2023-09-17T16:21:51.752Z,9.60
2023-09-17T16:23:23.553Z,10.20
2023-09-17T16:24:55.420Z,9.20
2023-09-17T16:26:27.342Z,7.20
2023-09-17T16:27:59.265Z,8.90
2023-09-17T16:29:31.072Z,9.50
2023-09-17T16:31:03.123Z,11.40
2023-09-17T16:32:36.311Z,8.90
2023-09-17T16:34:08.222Z,9.00
2023-09-17T16:35:40.523Z,8.70
2023-09-17T16:37:12.370Z,9.90
2023-09-17T16:38:44.086Z,8.10
2023-09-17T16:40:15.885Z,8.90
2023-09-17T16:41:47.631Z,8.20
2023-09-17T16:43:19.464Z,7.80
2023-09-17T16:44:51.280Z,7.50
2023-09-17T16:46:23.121Z,8.10
2023-09-17T16:47:55.100Z,8.50
2023-09-17T16:49:27.119Z,9.80
2023-09-17T16:50:59.506Z,9.80
2023-09-17T16:52:32.014Z,8.50
2023-09-17T16:54:04.042Z,7.50
2023-09-17T16:55:37.150Z,9.10
2023-09-17T16:57:10.650Z,7.80
2023-09-17T16:58:42.695Z,7.80
2023-09-17T17:00:15.111Z,7.00
2023-09-17T17:01:47.089Z,7.80
2023-09-17T17:03:19.109Z,10.20
2023-09-17T17:04:55.677Z,9.10
2023-09-17T17:06:27.598Z,11.20
2023-09-17T17:07:59.578Z,8.10
2023-09-17T17:09:32.225Z,10.10
2023-09-17T17:11:04.338Z,8.50
2023-09-17T17:12:36.258Z,8.30
2023-09-17T17:14:08.100Z,8.90
2023-09-17T17:15:39.957Z,10.30
2023-09-17T17:17:11.927Z,9.50
2023-09-17T17:18:43.718Z,11.00
2023-09-17T17:20:15.716Z,9.10
2023-09-17T17:21:47.555Z,10.40
2023-09-17T17:23:19.451Z,9.90
2023-09-17T17:24:51.676Z,9.40
2023-09-17T17:26:23.483Z,9.60
2023-09-17T17:27:55.846Z,9.10
2023-09-17T17:29:27.906Z,8.80
2023-09-17T17:31:02.996Z,8.60
2023-09-17T17:32:35.017Z,9.20
2023-09-17T17:34:06.911Z,10.30
2023-09-17T17:35:38.788Z,7.90
2023-09-17T17:37:10.547Z,8.80
2023-09-17T17:38:42.338Z,8.10
2023-09-17T17:40:14.486Z,7.90
2023-09-17T17:41:46.294Z,9.70
2023-09-17T17:43:18.077Z,9.30
2023-09-17T17:44:50.165Z,9.10
2023-09-17T17:46:22.070Z,9.90
2023-09-17T17:47:53.880Z,8.30
2023-09-17T17:49:25.663Z,10.00
2023-09-17T17:50:57.581Z,10.10
2023-09-17T17:52:29.382Z,8.80
2023-09-17T17:54:01.331Z,9.90
2023-09-17T17:55:33.118Z,8.40
2023-09-17T17:57:06.121Z,9.90
2023-09-17T17:58:37.948Z,10.20
2023-09-17T18:00:10.707Z,9.90
2023-09-17T18:01:42.511Z,9.40
2023-09-17T18:03:14.405Z,9.80
2023-09-17T18:04:46.328Z,9.70
2023-09-17T18:06:18.204Z,11.70
2023-09-17T18:07:49.989Z,10.50
2023-09-17T18:09:21.996Z,12.40
2023-09-17T18:10:53.812Z,12.00
2023-09-17T18:12:25.929Z,13.40
2023-09-17T18:13:57.685Z,11.50
2023-09-17T18:15:29.480Z,10.20
2023-09-17T18:17:01.802Z,10.80
2023-09-17T18:18:33.775Z,11.30
2023-09-17T18:20:06.317Z,11.40
2023-09-17T18:21:38.198Z,11.60
2023-09-17T18:23:10.045Z,10.90
2023-09-17T18:24:41.928Z,11.00
2023-09-17T18:26:13.748Z,11.00
2023-09-17T18:27:45.851Z,10.70
2023-09-17T18:29:21.558Z,10.70
2023-09-17T18:30:56.430Z,12.90
2023-09-17T18:32:30.859Z,13.00
2023-09-17T18:34:02.761Z,10.10
2023-09-17T18:35:34.719Z,11.90
2023-09-17T18:37:07.351Z,11.70
2023-09-17T18:38:39.418Z,12.50
2023-09-17T18:40:11.504Z,13.70
2023-09-17T18:42:04.955Z,13.30
2023-09-17T18:43:38.278Z,12.40
2023-09-17T18:45:11.376Z,10.80
2023-09-17T18:46:43.728Z,11.20
2023-09-17T18:48:16.155Z,10.80
2023-09-17T18:49:49.150Z,12.50
2023-09-17T18:51:21.734Z,11.70
2023-09-17T18:52:53.600Z,12.70
2023-09-17T18:54:25.941Z,12.30
2023-09-17T18:55:57.738Z,10.70
2023-09-17T18:57:31.748Z,11.70
2023-09-17T18:59:04.987Z,13.10
2023-09-17T19:00:37.079Z,12.80
2023-09-17T19:02:09.021Z,13.10
2023-09-17T19:03:40.880Z,14.20
2023-09-17T19:05:13.983Z,14.60
2023-09-17T19:06:49.596Z,11.80
2023-09-17T19:08:27.378Z,15.40
2023-09-17T19:09:59.153Z,13.90
2023-09-17T19:11:31.003Z,13.30
2023-09-17T19:13:04.130Z,11.80
2023-09-17T19:14:38.642Z,12.30
2023-09-17T19:16:10.523Z,12.10
2023-09-17T19:17:42.467Z,13.70
2023-09-17T19:19:14.586Z,12.20
2023-09-17T19:20:47.429Z,13.00
2023-09-17T19:22:20.037Z,12.90
2023-09-17T19:23:52.180Z,13.20
2023-09-17T19:25:24.232Z,12.90
2023-09-17T19:26:56.245Z,12.90
2023-09-17T19:28:28.230Z,14.60
2023-09-17T19:30:00.560Z,15.70
2023-09-17T19:31:32.401Z,15.20
2023-09-17T19:33:05.327Z,13.20
2023-09-17T19:34:37.500Z,16.70
2023-09-17T19:36:09.677Z,13.00
2023-09-17T19:37:41.508Z,12.30
2023-09-17T19:39:13.270Z,14.70
2023-09-17T19:40:46.109Z,13.00
2023-09-17T19:42:18.079Z,13.20
2023-09-17T19:43:50.447Z,12.40
2023-09-17T19:45:24.874Z,11.80
2023-09-17T19:46:59.831Z,15.80
2023-09-17T19:48:32.116Z,13.70
2023-09-17T19:50:04.332Z,12.70
2023-09-17T19:51:37.273Z,12.50
2023-09-17T19:53:10.188Z,13.40
2023-09-17T19:54:44.999Z,13.30
2023-09-17T19:56:16.887Z,14.50
2023-09-17T19:57:49.399Z,13.40
2023-09-17T19:59:21.345Z,12.40
2023-09-17T20:00:53.274Z,12.50
2023-09-17T20:02:25.267Z,13.90
2023-09-17T20:03:59.166Z,10.90
2023-09-17T20:05:34.585Z,11.90
2023-09-17T20:07:06.563Z,11.30
2023-09-17T20:08:38.613Z,11.10
2023-09-17T20:10:16.142Z,12.90
2023-09-17T20:11:48.158Z,12.00
2023-09-17T20:13:20.092Z,11.50
2023-09-17T20:14:52.570Z,10.30
2023-09-17T20:16:25.205Z,13.80
2023-09-17T20:17:58.327Z,12.50
2023-09-17T20:19:30.118Z,13.70
2023-09-17T20:21:02.016Z,12.50
2023-09-17T20:22:45.431Z,10.20
2023-09-17T20:24:22.680Z,10.70
2023-09-17T20:25:54.499Z,12.60
2023-09-17T20:27:28.356Z,11.70
2023-09-17T20:29:00.212Z,12.60
2023-09-17T20:30:32.087Z,11.90
2023-09-17T20:32:04.138Z,12.30
2023-09-17T20:33:35.921Z,12.40
2023-09-17T20:35:08.341Z,11.60
2023-09-17T20:36:40.502Z,10.60
2023-09-17T20:38:12.393Z,10.40
2023-09-17T20:39:44.351Z,11.90
2023-09-17T20:41:16.859Z,11.10
2023-09-17T20:42:49.387Z,13.80
2023-09-17T20:44:22.979Z,12.20
2023-09-17T20:45:55.045Z,11.60
2023-09-17T20:47:29.389Z,11.80
2023-09-17T20:49:01.584Z,13.00